sensor_id;sensor_type;location;lat;lon;timestamp;temperature;humidity
16814;DHT22;8524;57.650;11.926;2023-02-26T00:02:20;-0.10;99.90
16814;DHT22;8524;57.650;11.926;2023-02-26T00:04:47;0.00;99.90
16814;DHT22;8524;57.650;11.926;2023-02-26T00:07:15;0.00;99.90
16814;DHT22;8524;57.650;11.926;2023-02-26T00:09:42;-0.10;99.90
16814;DHT22;8524;57.650;11.926;2023-02-26T00:12:10;-0.10;99.90
16814;DHT22;8524;57.650;11.926;2023-02-26T00:14:38;-0.10;99.90
16814;DHT22;8524;57.650;11.926;2023-02-26T00:17:19;-0.10;99.90
16814;DHT22;8524;57.650;11.926;2023-02-26T00:19:50;0.00;99.90
16814;DHT22;8524;57.650;11.926;2023-02-26T00:22:18;0.00;99.90
16814;DHT22;8524;57.650;11.926;2023-02-26T00:24:45;0.00;99.90
16814;DHT22;8524;57.650;11.926;2023-02-26T00:27:12;0.00;99.90
16814;DHT22;8524;57.650;11.926;2023-02-26T00:29:39;0.00;99.90
16814;DHT22;8524;57.650;11.926;2023-02-26T00:32:09;0.00;99.90
16814;DHT22;8524;57.650;11.926;2023-02-26T00:34:37;0.00;99.90
16814;DHT22;8524;57.650;11.926;2023-02-26T00:37:14;0.00;99.90
16814;DHT22;8524;57.650;11.926;2023-02-26T00:39:48;0.00;99.90
16814;DHT22;8524;57.650;11.926;2023-02-26T00:42:18;0.00;99.90
16814;DHT22;8524;57.650;11.926;2023-02-26T00:44:45;-0.10;99.90
16814;DHT22;8524;57.650;11.926;2023-02-26T00:47:19;-0.10;99.90
16814;DHT22;8524;57.650;11.926;2023-02-26T00:50:01;0.00;99.90
16814;DHT22;8524;57.650;11.926;2023-02-26T00:52:37;0.10;99.90
16814;DHT22;8524;57.650;11.926;2023-02-26T00:55:05;0.10;99.90
16814;DHT22;8524;57.650;11.926;2023-02-26T00:57:32;0.20;99.90
16814;DHT22;8524;57.650;11.926;2023-02-26T00:59:59;0.10;99.90
16814;DHT22;8524;57.650;11.926;2023-02-26T01:02:28;0.00;99.90
16814;DHT22;8524;57.650;11.926;2023-02-26T01:04:55;0.00;99.90
16814;DHT22;8524;57.650;11.926;2023-02-26T01:07:24;0.00;99.90
16814;DHT22;8524;57.650;11.926;2023-02-26T01:09:52;0.00;99.90
16814;DHT22;8524;57.650;11.926;2023-02-26T01:12:20;0.00;99.90
16814;DHT22;8524;57.650;11.926;2023-02-26T01:14:47;0.00;99.90
16814;DHT22;8524;57.650;11.926;2023-02-26T01:17:19;-0.10;99.90
16814;DHT22;8524;57.650;11.926;2023-02-26T01:19:52;-0.10;99.90
16814;DHT22;8524;57.650;11.926;2023-02-26T01:22:22;-0.10;99.90
16814;DHT22;8524;57.650;11.926;2023-02-26T01:24:55;-0.20;99.90
16814;DHT22;8524;57.650;11.926;2023-02-26T01:27:25;-0.20;99.90
16814;DHT22;8524;57.650;11.926;2023-02-26T01:29:53;-0.30;99.90
16814;DHT22;8524;57.650;11.926;2023-02-26T01:32:24;-0.10;99.90
16814;DHT22;8524;57.650;11.926;2023-02-26T01:34:58;-0.20;99.90
16814;DHT22;8524;57.650;11.926;2023-02-26T01:37:30;-0.20;99.90
16814;DHT22;8524;57.650;11.926;2023-02-26T01:40:32;-0.20;99.90
16814;DHT22;8524;57.650;11.926;2023-02-26T01:43:06;-0.20;99.90
16814;DHT22;8524;57.650;11.926;2023-02-26T01:45:42;-0.30;99.90
16814;DHT22;8524;57.650;11.926;2023-02-26T01:48:19;-0.20;99.90
16814;DHT22;8524;57.650;11.926;2023-02-26T01:50:50;-0.20;99.90
16814;DHT22;8524;57.650;11.926;2023-02-26T01:53:20;-0.30;99.90
16814;DHT22;8524;57.650;11.926;2023-02-26T01:55:51;-0.30;99.90
16814;DHT22;8524;57.650;11.926;2023-02-26T01:58:20;-0.40;99.90
16814;DHT22;8524;57.650;11.926;2023-02-26T02:00:47;-0.30;99.90
16814;DHT22;8524;57.650;11.926;2023-02-26T02:03:15;-0.50;99.90
16814;DHT22;8524;57.650;11.926;2023-02-26T02:05:44;-0.50;99.90
16814;DHT22;8524;57.650;11.926;2023-02-26T02:08:14;-0.40;99.90
16814;DHT22;8524;57.650;11.926;2023-02-26T02:10:43;-0.40;99.90
16814;DHT22;8524;57.650;11.926;2023-02-26T02:13:20;-0.30;99.90
16814;DHT22;8524;57.650;11.926;2023-02-26T02:15:56;-0.40;99.90
16814;DHT22;8524;57.650;11.926;2023-02-26T02:18:36;-0.30;99.90
16814;DHT22;8524;57.650;11.926;2023-02-26T02:21:34;-0.30;99.90
16814;DHT22;8524;57.650;11.926;2023-02-26T02:24:14;-0.40;99.90
16814;DHT22;8524;57.650;11.926;2023-02-26T02:27:07;-0.40;99.90
16814;DHT22;8524;57.650;11.926;2023-02-26T02:29:53;-0.40;99.90
16814;DHT22;8524;57.650;11.926;2023-02-26T02:32:31;-0.40;99.90
16814;DHT22;8524;57.650;11.926;2023-02-26T02:35:06;-0.40;99.90
16814;DHT22;8524;57.650;11.926;2023-02-26T02:37:38;-0.30;99.90
16814;DHT22;8524;57.650;11.926;2023-02-26T02:40:10;-0.40;99.90
16814;DHT22;8524;57.650;11.926;2023-02-26T02:42:41;-0.40;99.90
16814;DHT22;8524;57.650;11.926;2023-02-26T02:45:16;-0.30;99.90
16814;DHT22;8524;57.650;11.926;2023-02-26T02:47:49;-0.40;99.90
16814;DHT22;8524;57.650;11.926;2023-02-26T02:50:22;-0.30;99.90
16814;DHT22;8524;57.650;11.926;2023-02-26T02:52:56;-0.40;99.90
16814;DHT22;8524;57.650;11.926;2023-02-26T02:55:26;-0.50;99.90
16814;DHT22;8524;57.650;11.926;2023-02-26T02:57:57;-0.50;99.90
16814;DHT22;8524;57.650;11.926;2023-02-26T03:00:27;-0.50;99.90
16814;DHT22;8524;57.650;11.926;2023-02-26T03:03:03;-0.40;99.90
16814;DHT22;8524;57.650;11.926;2023-02-26T03:05:32;-0.50;99.90
16814;DHT22;8524;57.650;11.926;2023-02-26T03:08:03;-0.40;99.90
16814;DHT22;8524;57.650;11.926;2023-02-26T03:10:31;-0.40;99.90
16814;DHT22;8524;57.650;11.926;2023-02-26T03:12:58;-0.40;99.90
16814;DHT22;8524;57.650;11.926;2023-02-26T03:18:26;-0.40;99.90
16814;DHT22;8524;57.650;11.926;2023-02-26T03:21:01;-0.60;99.90
16814;DHT22;8524;57.650;11.926;2023-02-26T03:23:34;-0.60;99.90
16814;DHT22;8524;57.650;11.926;2023-02-26T03:26:07;-0.50;99.90
16814;DHT22;8524;57.650;11.926;2023-02-26T03:28:40;-0.50;99.90
16814;DHT22;8524;57.650;11.926;2023-02-26T03:31:12;-0.50;99.90
16814;DHT22;8524;57.650;11.926;2023-02-26T03:33:46;-0.60;99.90
16814;DHT22;8524;57.650;11.926;2023-02-26T03:36:20;-0.70;99.90
16814;DHT22;8524;57.650;11.926;2023-02-26T03:38:52;-0.70;99.90
16814;DHT22;8524;57.650;11.926;2023-02-26T03:41:24;-0.80;99.90
16814;DHT22;8524;57.650;11.926;2023-02-26T03:43:55;-0.80;99.90
16814;DHT22;8524;57.650;11.926;2023-02-26T03:46:32;-0.70;99.90
16814;DHT22;8524;57.650;11.926;2023-02-26T03:49:07;-0.70;99.90
16814;DHT22;8524;57.650;11.926;2023-02-26T03:51:35;-0.70;99.90
16814;DHT22;8524;57.650;11.926;2023-02-26T03:54:07;-0.80;99.90
16814;DHT22;8524;57.650;11.926;2023-02-26T03:56:39;-0.80;99.90
16814;DHT22;8524;57.650;11.926;2023-02-26T03:59:07;-0.70;99.90
16814;DHT22;8524;57.650;11.926;2023-02-26T04:01:40;-0.70;99.90
16814;DHT22;8524;57.650;11.926;2023-02-26T04:04:13;-0.60;99.90
16814;DHT22;8524;57.650;11.926;2023-02-26T04:06:42;-0.70;99.90
16814;DHT22;8524;57.650;11.926;2023-02-26T04:09:09;-0.70;99.90
16814;DHT22;8524;57.650;11.926;2023-02-26T04:11:37;-0.70;99.90
16814;DHT22;8524;57.650;11.926;2023-02-26T04:14:05;-0.70;99.90
16814;DHT22;8524;57.650;11.926;2023-02-26T04:16:32;-0.70;99.90
16814;DHT22;8524;57.650;11.926;2023-02-26T04:18:59;-0.70;99.90
16814;DHT22;8524;57.650;11.926;2023-02-26T04:21:27;-0.60;99.90
16814;DHT22;8524;57.650;11.926;2023-02-26T04:23:54;-0.70;99.90
16814;DHT22;8524;57.650;11.926;2023-02-26T04:26:22;-0.70;99.90
16814;DHT22;8524;57.650;11.926;2023-02-26T04:28:49;-0.80;99.90
16814;DHT22;8524;57.650;11.926;2023-02-26T04:31:16;-0.80;99.90
16814;DHT22;8524;57.650;11.926;2023-02-26T04:33:43;-0.80;99.90
16814;DHT22;8524;57.650;11.926;2023-02-26T04:36:10;-0.90;99.90
16814;DHT22;8524;57.650;11.926;2023-02-26T04:38:39;-0.90;99.90
16814;DHT22;8524;57.650;11.926;2023-02-26T04:41:06;-1.00;99.90
16814;DHT22;8524;57.650;11.926;2023-02-26T04:43:33;-0.90;99.90
16814;DHT22;8524;57.650;11.926;2023-02-26T04:46:00;-0.90;99.90
16814;DHT22;8524;57.650;11.926;2023-02-26T04:48:27;-0.90;99.90
16814;DHT22;8524;57.650;11.926;2023-02-26T04:50:54;-1.00;99.90
16814;DHT22;8524;57.650;11.926;2023-02-26T04:53:21;-0.90;99.90
16814;DHT22;8524;57.650;11.926;2023-02-26T04:55:49;-0.90;99.90
16814;DHT22;8524;57.650;11.926;2023-02-26T04:58:17;-1.00;99.90
16814;DHT22;8524;57.650;11.926;2023-02-26T05:00:47;-1.10;99.90
16814;DHT22;8524;57.650;11.926;2023-02-26T05:03:15;-1.10;99.90
16814;DHT22;8524;57.650;11.926;2023-02-26T05:05:43;-1.20;99.90
16814;DHT22;8524;57.650;11.926;2023-02-26T05:08:10;-1.20;99.90
16814;DHT22;8524;57.650;11.926;2023-02-26T05:10:37;-1.20;99.90
16814;DHT22;8524;57.650;11.926;2023-02-26T05:13:05;-1.20;99.90
16814;DHT22;8524;57.650;11.926;2023-02-26T05:15:33;-1.30;99.90
16814;DHT22;8524;57.650;11.926;2023-02-26T05:18:00;-1.40;99.90
16814;DHT22;8524;57.650;11.926;2023-02-26T05:20:27;-1.50;99.90
16814;DHT22;8524;57.650;11.926;2023-02-26T05:22:54;-1.50;99.90
16814;DHT22;8524;57.650;11.926;2023-02-26T05:25:21;-1.30;99.90
16814;DHT22;8524;57.650;11.926;2023-02-26T05:27:48;-1.20;99.90
16814;DHT22;8524;57.650;11.926;2023-02-26T05:30:17;-1.10;99.90
16814;DHT22;8524;57.650;11.926;2023-02-26T05:32:44;-1.10;99.90
16814;DHT22;8524;57.650;11.926;2023-02-26T05:35:11;-1.10;99.90
16814;DHT22;8524;57.650;11.926;2023-02-26T05:37:38;-1.20;99.90
16814;DHT22;8524;57.650;11.926;2023-02-26T05:40:07;-1.20;99.90
16814;DHT22;8524;57.650;11.926;2023-02-26T05:42:35;-1.10;99.90
16814;DHT22;8524;57.650;11.926;2023-02-26T05:45:03;-1.10;99.90
16814;DHT22;8524;57.650;11.926;2023-02-26T05:47:33;-1.00;99.90
16814;DHT22;8524;57.650;11.926;2023-02-26T05:50:00;-1.10;99.90
16814;DHT22;8524;57.650;11.926;2023-02-26T05:52:27;-1.10;99.90
16814;DHT22;8524;57.650;11.926;2023-02-26T05:54:55;-1.10;99.90
16814;DHT22;8524;57.650;11.926;2023-02-26T05:57:22;-1.20;99.90
16814;DHT22;8524;57.650;11.926;2023-02-26T05:59:49;-1.20;99.90
16814;DHT22;8524;57.650;11.926;2023-02-26T06:02:17;-1.30;99.90
16814;DHT22;8524;57.650;11.926;2023-02-26T06:04:45;-1.30;99.90
16814;DHT22;8524;57.650;11.926;2023-02-26T06:07:12;-1.30;99.90
16814;DHT22;8524;57.650;11.926;2023-02-26T06:09:39;-1.30;99.90
16814;DHT22;8524;57.650;11.926;2023-02-26T06:12:07;-1.30;99.90
16814;DHT22;8524;57.650;11.926;2023-02-26T06:14:34;-1.30;99.90
16814;DHT22;8524;57.650;11.926;2023-02-26T06:17:01;-1.30;99.90
16814;DHT22;8524;57.650;11.926;2023-02-26T06:19:28;-1.40;99.90
16814;DHT22;8524;57.650;11.926;2023-02-26T06:21:57;-1.30;99.90
16814;DHT22;8524;57.650;11.926;2023-02-26T06:24:24;-1.30;99.90
16814;DHT22;8524;57.650;11.926;2023-02-26T06:26:51;-1.30;99.90
16814;DHT22;8524;57.650;11.926;2023-02-26T06:29:18;-1.30;99.90
16814;DHT22;8524;57.650;11.926;2023-02-26T06:31:46;-1.30;99.90
16814;DHT22;8524;57.650;11.926;2023-02-26T06:34:13;-1.30;99.90
16814;DHT22;8524;57.650;11.926;2023-02-26T06:36:40;-1.30;99.90
16814;DHT22;8524;57.650;11.926;2023-02-26T06:39:08;-1.20;99.90
16814;DHT22;8524;57.650;11.926;2023-02-26T06:41:37;-1.20;99.90
16814;DHT22;8524;57.650;11.926;2023-02-26T06:44:04;-1.10;99.90
16814;DHT22;8524;57.650;11.926;2023-02-26T06:46:32;-1.10;99.90
16814;DHT22;8524;57.650;11.926;2023-02-26T06:48:59;-1.10;99.90
16814;DHT22;8524;57.650;11.926;2023-02-26T06:51:26;-0.90;99.90
16814;DHT22;8524;57.650;11.926;2023-02-26T06:53:54;-0.90;99.90
16814;DHT22;8524;57.650;11.926;2023-02-26T06:56:22;-0.90;99.90
16814;DHT22;8524;57.650;11.926;2023-02-26T06:58:50;-0.80;99.90
16814;DHT22;8524;57.650;11.926;2023-02-26T07:01:17;-0.80;99.90
16814;DHT22;8524;57.650;11.926;2023-02-26T07:03:44;-0.70;99.90
16814;DHT22;8524;57.650;11.926;2023-02-26T07:06:12;-0.70;99.90
16814;DHT22;8524;57.650;11.926;2023-02-26T07:08:39;-0.70;99.90
16814;DHT22;8524;57.650;11.926;2023-02-26T07:11:06;-0.60;99.90
16814;DHT22;8524;57.650;11.926;2023-02-26T07:13:36;-0.50;99.90
16814;DHT22;8524;57.650;11.926;2023-02-26T07:16:03;-0.50;99.90
16814;DHT22;8524;57.650;11.926;2023-02-26T07:18:32;-0.50;99.90
16814;DHT22;8524;57.650;11.926;2023-02-26T07:20:59;-0.40;99.90
16814;DHT22;8524;57.650;11.926;2023-02-26T07:23:26;-0.40;99.90
16814;DHT22;8524;57.650;11.926;2023-02-26T07:25:53;-0.30;99.90
16814;DHT22;8524;57.650;11.926;2023-02-26T07:28:21;-0.30;99.90
16814;DHT22;8524;57.650;11.926;2023-02-26T07:30:49;-0.20;99.90
16814;DHT22;8524;57.650;11.926;2023-02-26T07:33:19;-0.10;99.90
16814;DHT22;8524;57.650;11.926;2023-02-26T07:35:46;0.00;99.90
16814;DHT22;8524;57.650;11.926;2023-02-26T07:38:14;0.00;99.90
16814;DHT22;8524;57.650;11.926;2023-02-26T07:40:41;0.10;99.90
16814;DHT22;8524;57.650;11.926;2023-02-26T07:43:08;0.20;99.90
16814;DHT22;8524;57.650;11.926;2023-02-26T07:45:35;0.20;99.90
16814;DHT22;8524;57.650;11.926;2023-02-26T07:48:03;0.30;99.90
16814;DHT22;8524;57.650;11.926;2023-02-26T07:50:31;0.30;99.90
16814;DHT22;8524;57.650;11.926;2023-02-26T07:52:58;0.50;99.90
16814;DHT22;8524;57.650;11.926;2023-02-26T07:55:25;0.60;99.90
16814;DHT22;8524;57.650;11.926;2023-02-26T07:57:53;0.60;99.90
16814;DHT22;8524;57.650;11.926;2023-02-26T08:00:20;0.60;99.90
16814;DHT22;8524;57.650;11.926;2023-02-26T08:02:47;0.70;99.90
16814;DHT22;8524;57.650;11.926;2023-02-26T08:05:16;0.70;99.90
16814;DHT22;8524;57.650;11.926;2023-02-26T08:07:43;0.80;99.90
16814;DHT22;8524;57.650;11.926;2023-02-26T08:10:10;0.90;99.90
16814;DHT22;8524;57.650;11.926;2023-02-26T08:12:38;0.90;99.90
16814;DHT22;8524;57.650;11.926;2023-02-26T08:15:06;1.00;99.90
16814;DHT22;8524;57.650;11.926;2023-02-26T08:17:33;1.00;99.90
16814;DHT22;8524;57.650;11.926;2023-02-26T08:20:00;1.10;99.90
16814;DHT22;8524;57.650;11.926;2023-02-26T08:22:31;1.10;99.90
16814;DHT22;8524;57.650;11.926;2023-02-26T08:24:58;1.10;99.90
16814;DHT22;8524;57.650;11.926;2023-02-26T08:27:25;1.20;99.90
16814;DHT22;8524;57.650;11.926;2023-02-26T08:29:52;1.20;99.90
16814;DHT22;8524;57.650;11.926;2023-02-26T08:32:19;1.10;99.90
16814;DHT22;8524;57.650;11.926;2023-02-26T08:34:47;1.20;99.90
16814;DHT22;8524;57.650;11.926;2023-02-26T08:37:15;1.20;99.90
16814;DHT22;8524;57.650;11.926;2023-02-26T08:39:43;1.40;99.90
16814;DHT22;8524;57.650;11.926;2023-02-26T08:42:10;1.40;99.90
16814;DHT22;8524;57.650;11.926;2023-02-26T08:44:41;1.50;99.90
16814;DHT22;8524;57.650;11.926;2023-02-26T08:47:08;1.50;99.90
16814;DHT22;8524;57.650;11.926;2023-02-26T08:49:35;1.40;99.90
16814;DHT22;8524;57.650;11.926;2023-02-26T08:52:02;1.40;99.90
16814;DHT22;8524;57.650;11.926;2023-02-26T08:54:29;1.40;99.90
16814;DHT22;8524;57.650;11.926;2023-02-26T08:56:58;1.50;99.90
16814;DHT22;8524;57.650;11.926;2023-02-26T08:59:25;1.50;99.90
16814;DHT22;8524;57.650;11.926;2023-02-26T09:01:52;1.70;99.90
16814;DHT22;8524;57.650;11.926;2023-02-26T09:04:19;1.70;99.90
16814;DHT22;8524;57.650;11.926;2023-02-26T09:06:46;1.70;99.90
16814;DHT22;8524;57.650;11.926;2023-02-26T09:09:14;2.00;99.90
16814;DHT22;8524;57.650;11.926;2023-02-26T09:11:41;2.00;99.90
16814;DHT22;8524;57.650;11.926;2023-02-26T09:14:09;2.10;99.90
16814;DHT22;8524;57.650;11.926;2023-02-26T09:16:36;2.10;99.90
16814;DHT22;8524;57.650;11.926;2023-02-26T09:19:04;2.10;99.90
16814;DHT22;8524;57.650;11.926;2023-02-26T09:21:32;2.20;99.90
16814;DHT22;8524;57.650;11.926;2023-02-26T09:24:00;2.30;99.90
16814;DHT22;8524;57.650;11.926;2023-02-26T09:26:27;2.40;99.90
16814;DHT22;8524;57.650;11.926;2023-02-26T09:28:54;2.40;99.90
16814;DHT22;8524;57.650;11.926;2023-02-26T09:31:23;2.60;99.90
16814;DHT22;8524;57.650;11.926;2023-02-26T09:33:50;2.60;99.90
16814;DHT22;8524;57.650;11.926;2023-02-26T09:36:17;2.60;99.90
16814;DHT22;8524;57.650;11.926;2023-02-26T09:38:44;2.80;99.90
16814;DHT22;8524;57.650;11.926;2023-02-26T09:41:16;2.80;99.90
16814;DHT22;8524;57.650;11.926;2023-02-26T09:44:16;3.00;99.90
16814;DHT22;8524;57.650;11.926;2023-02-26T09:46:52;3.20;99.90
16814;DHT22;8524;57.650;11.926;2023-02-26T09:49:34;3.20;99.90
16814;DHT22;8524;57.650;11.926;2023-02-26T09:52:12;3.20;99.90
16814;DHT22;8524;57.650;11.926;2023-02-26T09:54:45;3.40;99.90
16814;DHT22;8524;57.650;11.926;2023-02-26T09:57:29;3.30;99.90
16814;DHT22;8524;57.650;11.926;2023-02-26T09:59:57;3.40;99.90
16814;DHT22;8524;57.650;11.926;2023-02-26T10:02:33;3.50;99.90
16814;DHT22;8524;57.650;11.926;2023-02-26T10:05:18;3.50;99.90
16814;DHT22;8524;57.650;11.926;2023-02-26T10:07:51;3.60;99.90
16814;DHT22;8524;57.650;11.926;2023-02-26T10:10:27;3.70;99.90
16814;DHT22;8524;57.650;11.926;2023-02-26T10:12:55;3.70;99.90
16814;DHT22;8524;57.650;11.926;2023-02-26T10:15:27;3.80;99.90
16814;DHT22;8524;57.650;11.926;2023-02-26T10:18:03;4.00;99.90
16814;DHT22;8524;57.650;11.926;2023-02-26T10:20:36;4.10;99.90
16814;DHT22;8524;57.650;11.926;2023-02-26T10:23:17;4.10;99.90
16814;DHT22;8524;57.650;11.926;2023-02-26T10:25:47;4.10;99.90
16814;DHT22;8524;57.650;11.926;2023-02-26T10:28:40;4.20;99.90
16814;DHT22;8524;57.650;11.926;2023-02-26T10:31:16;4.30;99.90
16814;DHT22;8524;57.650;11.926;2023-02-26T10:33:52;4.10;99.90
16814;DHT22;8524;57.650;11.926;2023-02-26T10:36:24;4.30;99.90
16814;DHT22;8524;57.650;11.926;2023-02-26T10:38:57;4.30;99.90
16814;DHT22;8524;57.650;11.926;2023-02-26T10:41:30;4.40;99.90
16814;DHT22;8524;57.650;11.926;2023-02-26T10:44:03;4.40;99.90
16814;DHT22;8524;57.650;11.926;2023-02-26T10:46:39;4.50;99.90
16814;DHT22;8524;57.650;11.926;2023-02-26T10:52:11;4.60;99.90
16814;DHT22;8524;57.650;11.926;2023-02-26T10:54:46;4.80;99.90
16814;DHT22;8524;57.650;11.926;2023-02-26T10:57:22;4.80;99.90
16814;DHT22;8524;57.650;11.926;2023-02-26T10:59:50;4.70;99.90
16814;DHT22;8524;57.650;11.926;2023-02-26T11:02:36;4.90;99.90
16814;DHT22;8524;57.650;11.926;2023-02-26T11:05:12;4.90;99.90
16814;DHT22;8524;57.650;11.926;2023-02-26T11:07:42;5.00;99.90
16814;DHT22;8524;57.650;11.926;2023-02-26T11:10:14;5.00;99.90
16814;DHT22;8524;57.650;11.926;2023-02-26T11:12:43;5.00;99.90
16814;DHT22;8524;57.650;11.926;2023-02-26T11:15:15;5.00;99.90
16814;DHT22;8524;57.650;11.926;2023-02-26T11:17:44;5.10;99.90
16814;DHT22;8524;57.650;11.926;2023-02-26T11:20:19;5.20;99.90
16814;DHT22;8524;57.650;11.926;2023-02-26T11:22:53;5.30;99.90
16814;DHT22;8524;57.650;11.926;2023-02-26T11:25:24;5.30;99.90
16814;DHT22;8524;57.650;11.926;2023-02-26T11:28:00;5.20;99.90
16814;DHT22;8524;57.650;11.926;2023-02-26T11:30:31;5.30;99.90
16814;DHT22;8524;57.650;11.926;2023-02-26T11:33:05;5.30;99.90
16814;DHT22;8524;57.650;11.926;2023-02-26T11:35:34;5.50;99.90
16814;DHT22;8524;57.650;11.926;2023-02-26T11:38:02;5.60;99.90
16814;DHT22;8524;57.650;11.926;2023-02-26T11:40:34;5.60;99.90
16814;DHT22;8524;57.650;11.926;2023-02-26T11:43:04;5.50;99.90
16814;DHT22;8524;57.650;11.926;2023-02-26T11:45:35;5.50;99.90
16814;DHT22;8524;57.650;11.926;2023-02-26T11:48:05;5.50;99.90
16814;DHT22;8524;57.650;11.926;2023-02-26T11:50:37;5.60;99.90
16814;DHT22;8524;57.650;11.926;2023-02-26T11:53:15;5.60;99.90
16814;DHT22;8524;57.650;11.926;2023-02-26T11:55:45;5.60;99.90
16814;DHT22;8524;57.650;11.926;2023-02-26T11:58:18;5.60;99.90
16814;DHT22;8524;57.650;11.926;2023-02-26T12:00:47;5.60;99.90
16814;DHT22;8524;57.650;11.926;2023-02-26T12:03:18;5.70;99.90
16814;DHT22;8524;57.650;11.926;2023-02-26T12:05:47;5.60;99.90
16814;DHT22;8524;57.650;11.926;2023-02-26T12:08:18;5.70;99.90
16814;DHT22;8524;57.650;11.926;2023-02-26T12:10:54;5.80;99.90
16814;DHT22;8524;57.650;11.926;2023-02-26T12:13:28;5.70;99.90
16814;DHT22;8524;57.650;11.926;2023-02-26T12:16:01;5.70;99.90
16814;DHT22;8524;57.650;11.926;2023-02-26T12:18:42;5.70;99.90
16814;DHT22;8524;57.650;11.926;2023-02-26T12:21:25;5.80;99.90
16814;DHT22;8524;57.650;11.926;2023-02-26T12:24:20;5.80;99.90
16814;DHT22;8524;57.650;11.926;2023-02-26T12:26:53;5.70;99.90
16814;DHT22;8524;57.650;11.926;2023-02-26T12:29:40;5.80;99.90
16814;DHT22;8524;57.650;11.926;2023-02-26T12:32:26;5.70;99.90
16814;DHT22;8524;57.650;11.926;2023-02-26T12:37:59;5.90;99.90
16814;DHT22;8524;57.650;11.926;2023-02-26T12:40:50;5.90;99.90
16814;DHT22;8524;57.650;11.926;2023-02-26T12:43:29;6.00;99.90
16814;DHT22;8524;57.650;11.926;2023-02-26T12:46:03;6.00;99.90
16814;DHT22;8524;57.650;11.926;2023-02-26T12:48:57;6.10;99.90
16814;DHT22;8524;57.650;11.926;2023-02-26T12:51:40;6.20;99.90
16814;DHT22;8524;57.650;11.926;2023-02-26T12:54:25;6.10;99.90
16814;DHT22;8524;57.650;11.926;2023-02-26T12:57:12;6.10;99.90
16814;DHT22;8524;57.650;11.926;2023-02-26T13:06:13;6.20;99.90
16814;DHT22;8524;57.650;11.926;2023-02-26T13:08:51;6.20;99.90
16814;DHT22;8524;57.650;11.926;2023-02-26T13:11:44;6.20;99.90
16814;DHT22;8524;57.650;11.926;2023-02-26T13:14:34;6.10;99.90
16814;DHT22;8524;57.650;11.926;2023-02-26T13:17:09;6.10;99.90
16814;DHT22;8524;57.650;11.926;2023-02-26T13:19:43;6.10;99.90
16814;DHT22;8524;57.650;11.926;2023-02-26T13:22:19;6.10;99.90
16814;DHT22;8524;57.650;11.926;2023-02-26T13:24:51;6.00;99.90
16814;DHT22;8524;57.650;11.926;2023-02-26T13:27:24;6.20;99.90
16814;DHT22;8524;57.650;11.926;2023-02-26T13:29:59;6.10;99.90
16814;DHT22;8524;57.650;11.926;2023-02-26T13:32:27;6.10;99.90
16814;DHT22;8524;57.650;11.926;2023-02-26T13:34:56;6.20;99.90
16814;DHT22;8524;57.650;11.926;2023-02-26T13:37:26;6.10;99.90
16814;DHT22;8524;57.650;11.926;2023-02-26T13:40:03;6.30;99.90
16814;DHT22;8524;57.650;11.926;2023-02-26T13:42:38;6.40;99.90
16814;DHT22;8524;57.650;11.926;2023-02-26T13:45:28;6.30;99.90
16814;DHT22;8524;57.650;11.926;2023-02-26T13:48:07;6.40;99.90
16814;DHT22;8524;57.650;11.926;2023-02-26T13:50:44;6.50;99.90
16814;DHT22;8524;57.650;11.926;2023-02-26T13:53:35;6.40;99.90
16814;DHT22;8524;57.650;11.926;2023-02-26T13:56:14;6.40;99.90
16814;DHT22;8524;57.650;11.926;2023-02-26T13:58:47;6.40;99.90
16814;DHT22;8524;57.650;11.926;2023-02-26T14:01:16;6.50;99.90
16814;DHT22;8524;57.650;11.926;2023-02-26T14:03:49;6.30;99.90
16814;DHT22;8524;57.650;11.926;2023-02-26T14:06:41;6.30;99.90
16814;DHT22;8524;57.650;11.926;2023-02-26T14:09:34;6.20;99.90
16814;DHT22;8524;57.650;11.926;2023-02-26T14:12:03;6.20;99.90
16814;DHT22;8524;57.650;11.926;2023-02-26T14:14:38;6.30;99.90
16814;DHT22;8524;57.650;11.926;2023-02-26T14:17:38;6.40;99.90
16814;DHT22;8524;57.650;11.926;2023-02-26T14:20:16;6.40;99.90
16814;DHT22;8524;57.650;11.926;2023-02-26T14:22:47;6.30;99.90
16814;DHT22;8524;57.650;11.926;2023-02-26T14:25:18;6.40;99.90
16814;DHT22;8524;57.650;11.926;2023-02-26T14:27:48;6.30;99.90
16814;DHT22;8524;57.650;11.926;2023-02-26T14:30:26;6.30;99.90
16814;DHT22;8524;57.650;11.926;2023-02-26T14:33:06;6.20;99.90
16814;DHT22;8524;57.650;11.926;2023-02-26T14:35:38;6.10;99.90
16814;DHT22;8524;57.650;11.926;2023-02-26T14:38:10;6.00;99.90
16814;DHT22;8524;57.650;11.926;2023-02-26T14:40:41;6.00;99.90
16814;DHT22;8524;57.650;11.926;2023-02-26T14:43:15;6.00;99.90
16814;DHT22;8524;57.650;11.926;2023-02-26T14:45:46;6.00;99.90
16814;DHT22;8524;57.650;11.926;2023-02-26T14:48:17;6.00;99.90
16814;DHT22;8524;57.650;11.926;2023-02-26T14:50:52;6.00;99.90
16814;DHT22;8524;57.650;11.926;2023-02-26T14:53:45;5.90;99.90
16814;DHT22;8524;57.650;11.926;2023-02-26T14:56:22;6.00;99.90
16814;DHT22;8524;57.650;11.926;2023-02-26T14:59:04;5.90;99.90
16814;DHT22;8524;57.650;11.926;2023-02-26T15:01:44;5.90;99.90
16814;DHT22;8524;57.650;11.926;2023-02-26T15:04:28;5.90;99.90
16814;DHT22;8524;57.650;11.926;2023-02-26T15:07:13;5.90;99.90
16814;DHT22;8524;57.650;11.926;2023-02-26T15:09:51;5.90;99.90
16814;DHT22;8524;57.650;11.926;2023-02-26T15:12:38;5.80;99.90
16814;DHT22;8524;57.650;11.926;2023-02-26T15:15:26;5.70;99.90
16814;DHT22;8524;57.650;11.926;2023-02-26T15:18:08;5.90;99.90
16814;DHT22;8524;57.650;11.926;2023-02-26T15:20:45;5.70;99.90
16814;DHT22;8524;57.650;11.926;2023-02-26T15:23:37;5.70;99.90
16814;DHT22;8524;57.650;11.926;2023-02-26T15:26:07;5.70;99.90
16814;DHT22;8524;57.650;11.926;2023-02-26T15:28:39;5.60;99.90
16814;DHT22;8524;57.650;11.926;2023-02-26T15:31:09;5.50;99.90
16814;DHT22;8524;57.650;11.926;2023-02-26T15:33:38;5.50;99.90
16814;DHT22;8524;57.650;11.926;2023-02-26T15:36:07;5.50;99.90
16814;DHT22;8524;57.650;11.926;2023-02-26T15:38:44;5.50;99.90
16814;DHT22;8524;57.650;11.926;2023-02-26T15:41:12;5.50;99.90
16814;DHT22;8524;57.650;11.926;2023-02-26T15:43:43;5.50;99.90
16814;DHT22;8524;57.650;11.926;2023-02-26T15:46:13;5.60;99.90
16814;DHT22;8524;57.650;11.926;2023-02-26T15:48:43;5.40;99.90
16814;DHT22;8524;57.650;11.926;2023-02-26T15:51:12;5.50;99.90
16814;DHT22;8524;57.650;11.926;2023-02-26T15:53:42;5.40;99.90
16814;DHT22;8524;57.650;11.926;2023-02-26T15:56:13;5.40;99.90
16814;DHT22;8524;57.650;11.926;2023-02-26T15:58:46;5.30;99.90
16814;DHT22;8524;57.650;11.926;2023-02-26T16:01:16;5.30;99.90
16814;DHT22;8524;57.650;11.926;2023-02-26T16:03:46;5.20;99.90
16814;DHT22;8524;57.650;11.926;2023-02-26T16:06:22;5.10;99.90
16814;DHT22;8524;57.650;11.926;2023-02-26T16:08:49;5.00;99.90
16814;DHT22;8524;57.650;11.926;2023-02-26T16:11:16;5.00;99.90
16814;DHT22;8524;57.650;11.926;2023-02-26T16:13:44;4.90;99.90
16814;DHT22;8524;57.650;11.926;2023-02-26T16:16:17;4.80;99.90
16814;DHT22;8524;57.650;11.926;2023-02-26T16:18:49;4.70;99.90
16814;DHT22;8524;57.650;11.926;2023-02-26T16:21:23;4.70;99.90
16814;DHT22;8524;57.650;11.926;2023-02-26T16:23:54;4.60;99.90
16814;DHT22;8524;57.650;11.926;2023-02-26T16:26:27;4.50;99.90